CTV251 WIBB-WAHI
Flight info
| Callsign | CTV251 |
|---|---|
| Flight time | 1h 54m |
| Altitude | 35000 |
| Route | KUALA DCT JMB DCT PLB DCT BORAS DCT BIDAK DCT CLP |
| Aircraft | A20N/M-SDE2E3FGHIRWXY/LB1 |
Departure
| Time | 2026-05-07 04:24 |
|---|---|
| Airport | Sultan Syarif Kasim II International Airport / Roesmin Nurjadin AFB (WIBB) |
Arrival
| Time | 2026-05-07 06:18 |
|---|---|
| Airport | Yogyakarta International Airport (WAHI) |
| Time | Latitude | Longitude | Altitude | Speed | Heading |
|---|---|---|---|---|---|
| 2026-05-07 03:41 | 0.46430 | 101.44678 | 132 ft | 0 kts | 91° |
| 2026-05-07 04:13 | 0.46431 | 101.44653 | 132 ft | 4 kts | 91° |
| 2026-05-07 04:13 | 0.46431 | 101.44626 | 129 ft | 4 kts | 90° |
| 2026-05-07 04:13 | 0.46431 | 101.44599 | 130 ft | 4 kts | 89° |
| 2026-05-07 04:14 | 0.46430 | 101.44572 | 130 ft | 4 kts | 84° |
| 2026-05-07 04:14 | 0.46425 | 101.44546 | 130 ft | 4 kts | 60° |
| 2026-05-07 04:14 | 0.46414 | 101.44534 | 124 ft | 0 kts | 1° |
| 2026-05-07 04:18 | 0.46416 | 101.44534 | 124 ft | 2 kts | 1° |
| 2026-05-07 04:19 | 0.46429 | 101.44535 | 126 ft | 1 kts | 1° |
| 2026-05-07 04:19 | 0.46454 | 101.44535 | 128 ft | 6 kts | 1° |
| 2026-05-07 04:19 | 0.46509 | 101.44536 | 127 ft | 10 kts | 1° |
| 2026-05-07 04:19 | 0.46581 | 101.44538 | 127 ft | 11 kts | 1° |
| 2026-05-07 04:20 | 0.46611 | 101.44538 | 129 ft | 0 kts | 1° |
| 2026-05-07 04:20 | 0.46615 | 101.44538 | 125 ft | 2 kts | 1° |
| 2026-05-07 04:20 | 0.46628 | 101.44533 | 129 ft | 2 kts | 326° |
| 2026-05-07 04:21 | 0.46641 | 101.44477 | 127 ft | 6 kts | 308° |
| 2026-05-07 04:21 | 0.46687 | 101.44466 | 130 ft | 8 kts | 1° |
| 2026-05-07 04:21 | 0.46749 | 101.44470 | 128 ft | 10 kts | 1° |
| 2026-05-07 04:21 | 0.46829 | 101.44471 | 126 ft | 13 kts | 0° |
| 2026-05-07 04:22 | 0.46931 | 101.44473 | 124 ft | 17 kts | 1° |
| 2026-05-07 04:22 | 0.47027 | 101.44494 | 123 ft | 12 kts | 41° |
| 2026-05-07 04:22 | 0.47094 | 101.44491 | 122 ft | 9 kts | 287° |
| 2026-05-07 04:22 | 0.47073 | 101.44475 | 124 ft | 4 kts | 190° |
| 2026-05-07 04:23 | 0.47063 | 101.44475 | 125 ft | 2 kts | 180° |
| 2026-05-07 04:23 | 0.46948 | 101.44472 | 126 ft | 44 kts | 181° |
| 2026-05-07 04:23 | 0.46640 | 101.44465 | 129 ft | 89 kts | 182° |
| 2026-05-07 04:23 | 0.45820 | 101.44443 | 121 ft | 144 kts | 180° |
| 2026-05-07 04:24 | 0.44765 | 101.44403 | 623 ft | 151 kts | 181° |
| 2026-05-07 04:24 | 0.43723 | 101.44333 | 1244 ft | 150 kts | 177° |
| 2026-05-07 04:24 | 0.42349 | 101.44512 | 2040 ft | 155 kts | 159° |
| 2026-05-07 04:24 | 0.41680 | 101.44872 | 2306 ft | 168 kts | 143° |
| 2026-05-07 04:25 | 0.40822 | 101.45755 | 2705 ft | 186 kts | 133° |
| 2026-05-07 04:25 | 0.39910 | 101.46787 | 3022 ft | 212 kts | 132° |
| 2026-05-07 04:25 | 0.38908 | 101.47944 | 3441 ft | 234 kts | 132° |
| 2026-05-07 04:25 | 0.37800 | 101.49240 | 3936 ft | 255 kts | 131° |
| 2026-05-07 04:26 | 0.36621 | 101.50622 | 4648 ft | 265 kts | 131° |
| 2026-05-07 04:26 | 0.35421 | 101.52031 | 5550 ft | 267 kts | 131° |
| 2026-05-07 04:26 | 0.34213 | 101.53447 | 6432 ft | 268 kts | 131° |
| 2026-05-07 04:26 | 0.32985 | 101.54883 | 7148 ft | 275 kts | 131° |
| 2026-05-07 04:27 | 0.31741 | 101.56338 | 8050 ft | 274 kts | 131° |
| 2026-05-07 04:27 | 0.30496 | 101.57792 | 8839 ft | 279 kts | 130° |
| 2026-05-07 04:27 | 0.29222 | 101.59280 | 9386 ft | 288 kts | 130° |
| 2026-05-07 04:27 | 0.27903 | 101.60821 | 9671 ft | 294 kts | 130° |
| 2026-05-07 04:28 | 0.26576 | 101.62373 | 10025 ft | 292 kts | 130° |
| 2026-05-07 04:28 | 0.25231 | 101.63948 | 10293 ft | 311 kts | 130° |
| 2026-05-07 04:28 | 0.23769 | 101.65661 | 10488 ft | 333 kts | 130° |
| 2026-05-07 04:28 | 0.22240 | 101.67451 | 11043 ft | 339 kts | 129° |
| 2026-05-07 04:29 | 0.20699 | 101.69254 | 11674 ft | 345 kts | 129° |
| 2026-05-07 04:29 | 0.19166 | 101.71049 | 12331 ft | 348 kts | 129° |
| 2026-05-07 04:29 | 0.17606 | 101.72876 | 13001 ft | 351 kts | 129° |
| 2026-05-07 04:29 | 0.16011 | 101.74743 | 13643 ft | 355 kts | 129° |
| 2026-05-07 04:30 | 0.14400 | 101.76630 | 14219 ft | 358 kts | 129° |
| 2026-05-07 04:30 | 0.12774 | 101.78534 | 14804 ft | 362 kts | 129° |
| 2026-05-07 04:30 | 0.11130 | 101.80456 | 15367 ft | 365 kts | 129° |
| 2026-05-07 04:30 | 0.09462 | 101.82387 | 15929 ft | 369 kts | 129° |
| 2026-05-07 04:31 | 0.07774 | 101.84330 | 16475 ft | 372 kts | 129° |
| 2026-05-07 04:31 | 0.06069 | 101.86291 | 17009 ft | 376 kts | 129° |
| 2026-05-07 04:31 | 0.04348 | 101.88273 | 17545 ft | 379 kts | 129° |
| 2026-05-07 04:31 | 0.02617 | 101.90268 | 18061 ft | 382 kts | 129° |
| 2026-05-07 04:32 | 0.00865 | 101.92289 | 18522 ft | 385 kts | 129° |
| 2026-05-07 04:32 | -0.00873 | 101.94294 | 18978 ft | 388 kts | 129° |
| 2026-05-07 04:32 | -0.02666 | 101.96362 | 19458 ft | 390 kts | 129° |
| 2026-05-07 04:32 | -0.04424 | 101.98391 | 19855 ft | 394 kts | 129° |
| 2026-05-07 04:33 | -0.06226 | 102.00471 | 20291 ft | 397 kts | 129° |
| 2026-05-07 04:33 | -0.08037 | 102.02560 | 20765 ft | 399 kts | 129° |
| 2026-05-07 04:33 | -0.09820 | 102.04617 | 21178 ft | 402 kts | 129° |
| 2026-05-07 04:33 | -0.11662 | 102.06744 | 21569 ft | 406 kts | 129° |
| 2026-05-07 04:34 | -0.13515 | 102.08883 | 22002 ft | 408 kts | 129° |
| 2026-05-07 04:34 | -0.15382 | 102.11037 | 22411 ft | 411 kts | 129° |
| 2026-05-07 04:34 | -0.17261 | 102.13204 | 22837 ft | 414 kts | 129° |
| 2026-05-07 04:34 | -0.19153 | 102.15388 | 23243 ft | 417 kts | 129° |
| 2026-05-07 04:35 | -0.21062 | 102.17591 | 23610 ft | 420 kts | 129° |
| 2026-05-07 04:35 | -0.22979 | 102.19804 | 23969 ft | 422 kts | 129° |
| 2026-05-07 04:35 | -0.24906 | 102.22024 | 24316 ft | 424 kts | 129° |
| 2026-05-07 04:35 | -0.26842 | 102.24253 | 24657 ft | 426 kts | 129° |
| 2026-05-07 04:36 | -0.28793 | 102.26497 | 24989 ft | 428 kts | 129° |
| 2026-05-07 04:36 | -0.30748 | 102.28748 | 25314 ft | 430 kts | 129° |
| 2026-05-07 04:36 | -0.32689 | 102.30981 | 25640 ft | 432 kts | 129° |
| 2026-05-07 04:36 | -0.34662 | 102.33255 | 25966 ft | 434 kts | 129° |
| 2026-05-07 04:37 | -0.36640 | 102.35540 | 26270 ft | 436 kts | 129° |
| 2026-05-07 04:37 | -0.38627 | 102.37834 | 26577 ft | 438 kts | 129° |
| 2026-05-07 04:37 | -0.40623 | 102.40140 | 26872 ft | 440 kts | 129° |
| 2026-05-07 04:37 | -0.42635 | 102.42462 | 27135 ft | 443 kts | 129° |
| 2026-05-07 04:38 | -0.44655 | 102.44795 | 27424 ft | 445 kts | 129° |
| 2026-05-07 04:38 | -0.46689 | 102.47142 | 27715 ft | 447 kts | 129° |
| 2026-05-07 04:38 | -0.48725 | 102.49493 | 27991 ft | 448 kts | 129° |
| 2026-05-07 04:38 | -0.50776 | 102.51853 | 28261 ft | 450 kts | 130° |
| 2026-05-07 04:39 | -0.52836 | 102.54213 | 28528 ft | 452 kts | 130° |
| 2026-05-07 04:39 | -0.54912 | 102.56588 | 28784 ft | 454 kts | 130° |
| 2026-05-07 04:39 | -0.57000 | 102.58976 | 29043 ft | 456 kts | 130° |
| 2026-05-07 04:39 | -0.59084 | 102.61363 | 29284 ft | 458 kts | 130° |
| 2026-05-07 04:40 | -0.61184 | 102.63767 | 29532 ft | 459 kts | 130° |
| 2026-05-07 04:40 | -0.63288 | 102.66179 | 29779 ft | 461 kts | 130° |
| 2026-05-07 04:40 | -0.65400 | 102.68598 | 30009 ft | 463 kts | 130° |
| 2026-05-07 04:40 | -0.67524 | 102.71031 | 30216 ft | 465 kts | 130° |
| 2026-05-07 04:41 | -0.69625 | 102.73438 | 30414 ft | 467 kts | 130° |
| 2026-05-07 04:41 | -0.71762 | 102.75888 | 30635 ft | 468 kts | 130° |
| 2026-05-07 04:41 | -0.73907 | 102.78345 | 30871 ft | 470 kts | 130° |
| 2026-05-07 04:41 | -0.76056 | 102.80808 | 31126 ft | 470 kts | 130° |
| 2026-05-07 04:42 | -0.78200 | 102.83279 | 31382 ft | 471 kts | 130° |
| 2026-05-07 04:42 | -0.80337 | 102.85750 | 31748 ft | 468 kts | 129° |
| 2026-05-07 04:42 | -0.82459 | 102.88209 | 32036 ft | 468 kts | 129° |
| 2026-05-07 04:42 | -0.84585 | 102.90670 | 32347 ft | 466 kts | 129° |
| 2026-05-07 04:43 | -0.86697 | 102.93113 | 32705 ft | 464 kts | 129° |
| 2026-05-07 04:43 | -0.88868 | 102.95507 | 32912 ft | 466 kts | 134° |
| 2026-05-07 04:43 | -0.91281 | 102.97673 | 33124 ft | 467 kts | 141° |
| 2026-05-07 04:43 | -0.93896 | 102.99597 | 33384 ft | 467 kts | 144° |
| 2026-05-07 04:44 | -0.96542 | 103.01487 | 33651 ft | 466 kts | 143° |
| 2026-05-07 04:44 | -0.99160 | 103.03369 | 33905 ft | 465 kts | 143° |
| 2026-05-07 04:44 | -1.01771 | 103.05249 | 34136 ft | 464 kts | 143° |
| 2026-05-07 04:44 | -1.04387 | 103.07132 | 34355 ft | 464 kts | 143° |
| 2026-05-07 04:45 | -1.06980 | 103.09002 | 34491 ft | 465 kts | 143° |
| 2026-05-07 04:45 | -1.09594 | 103.10882 | 34664 ft | 461 kts | 143° |
| 2026-05-07 04:45 | -1.14680 | 103.14737 | 34835 ft | 459 kts | 137° |
| 2026-05-07 04:46 | -1.19214 | 103.19249 | 34853 ft | 459 kts | 134° |
| 2026-05-07 04:46 | -1.23693 | 103.23817 | 34848 ft | 460 kts | 134° |
| 2026-05-07 04:47 | -1.28182 | 103.28388 | 34848 ft | 459 kts | 134° |
| 2026-05-07 04:47 | -1.32651 | 103.32943 | 34849 ft | 460 kts | 134° |
| 2026-05-07 04:48 | -1.37090 | 103.37467 | 34842 ft | 457 kts | 134° |
| 2026-05-07 04:48 | -1.41289 | 103.41749 | 34847 ft | 457 kts | 134° |
| 2026-05-07 04:49 | -1.45771 | 103.46318 | 34847 ft | 459 kts | 134° |
| 2026-05-07 04:49 | -1.50245 | 103.50881 | 34852 ft | 461 kts | 134° |
| 2026-05-07 04:50 | -1.54755 | 103.55480 | 34851 ft | 462 kts | 134° |
| 2026-05-07 04:50 | -1.59220 | 103.60033 | 34851 ft | 461 kts | 134° |
| 2026-05-07 04:51 | -1.63763 | 103.64584 | 34864 ft | 463 kts | 137° |
| 2026-05-07 04:51 | -1.68737 | 103.68661 | 34851 ft | 461 kts | 140° |
| 2026-05-07 04:52 | -1.73729 | 103.72707 | 34851 ft | 463 kts | 140° |
| 2026-05-07 04:52 | -1.78689 | 103.76730 | 34854 ft | 461 kts | 140° |
| 2026-05-07 04:53 | -1.83442 | 103.80583 | 34851 ft | 461 kts | 140° |
| 2026-05-07 04:53 | -1.88574 | 103.84745 | 34835 ft | 463 kts | 140° |
| 2026-05-07 04:54 | -1.93564 | 103.88792 | 34853 ft | 459 kts | 141° |
| 2026-05-07 04:54 | -1.98545 | 103.92829 | 34854 ft | 461 kts | 141° |
| 2026-05-07 04:55 | -2.03508 | 103.96852 | 34853 ft | 458 kts | 141° |
| 2026-05-07 04:55 | -2.08465 | 104.00873 | 34856 ft | 458 kts | 141° |
| 2026-05-07 04:56 | -2.13401 | 104.04877 | 34857 ft | 461 kts | 141° |
| 2026-05-07 04:56 | -2.18383 | 104.08917 | 34853 ft | 459 kts | 141° |
| 2026-05-07 04:57 | -2.23336 | 104.12935 | 34850 ft | 459 kts | 141° |
| 2026-05-07 04:57 | -2.28337 | 104.16992 | 34857 ft | 465 kts | 141° |
| 2026-05-07 04:58 | -2.33314 | 104.21030 | 34856 ft | 464 kts | 141° |
| 2026-05-07 04:58 | -2.38309 | 104.25082 | 34857 ft | 462 kts | 140° |
| 2026-05-07 04:59 | -2.43298 | 104.29131 | 34857 ft | 462 kts | 140° |
| 2026-05-07 04:59 | -2.48297 | 104.33189 | 34856 ft | 462 kts | 140° |
| 2026-05-07 05:00 | -2.53287 | 104.37237 | 34856 ft | 461 kts | 140° |
| 2026-05-07 05:00 | -2.58259 | 104.41274 | 34857 ft | 461 kts | 140° |
| 2026-05-07 05:01 | -2.63208 | 104.45293 | 34854 ft | 460 kts | 140° |
| 2026-05-07 05:01 | -2.68155 | 104.49309 | 34854 ft | 460 kts | 140° |
| 2026-05-07 05:02 | -2.73148 | 104.53364 | 34857 ft | 462 kts | 140° |
| 2026-05-07 05:02 | -2.78136 | 104.57414 | 34853 ft | 461 kts | 140° |
| 2026-05-07 05:03 | -2.83094 | 104.61441 | 34851 ft | 461 kts | 140° |
| 2026-05-07 05:03 | -2.87960 | 104.65609 | 34852 ft | 460 kts | 134° |
| 2026-05-07 05:04 | -2.92168 | 104.70418 | 34856 ft | 459 kts | 129° |
| 2026-05-07 05:04 | -2.95592 | 104.74478 | 34844 ft | 459 kts | 129° |
| 2026-05-07 05:05 | -2.99715 | 104.79355 | 34834 ft | 459 kts | 129° |
| 2026-05-07 05:05 | -3.03840 | 104.84240 | 34840 ft | 459 kts | 129° |
| 2026-05-07 05:06 | -3.07963 | 104.89126 | 34835 ft | 460 kts | 129° |
| 2026-05-07 05:06 | -3.12089 | 104.94015 | 34855 ft | 458 kts | 129° |
| 2026-05-07 05:07 | -3.16177 | 104.98862 | 34852 ft | 457 kts | 129° |
| 2026-05-07 05:07 | -3.20274 | 105.03719 | 34851 ft | 457 kts | 129° |
| 2026-05-07 05:08 | -3.24392 | 105.08601 | 34850 ft | 457 kts | 129° |
| 2026-05-07 05:08 | -3.28485 | 105.13455 | 34852 ft | 458 kts | 129° |
| 2026-05-07 05:09 | -3.32550 | 105.18276 | 34851 ft | 454 kts | 129° |
| 2026-05-07 05:09 | -3.36642 | 105.23131 | 34850 ft | 458 kts | 129° |
| 2026-05-07 05:10 | -3.40737 | 105.27989 | 34850 ft | 456 kts | 129° |
| 2026-05-07 05:10 | -3.44854 | 105.32872 | 34851 ft | 458 kts | 129° |
| 2026-05-07 05:11 | -3.48944 | 105.37723 | 34852 ft | 456 kts | 129° |
| 2026-05-07 05:11 | -3.53031 | 105.42572 | 34850 ft | 453 kts | 129° |
| 2026-05-07 05:12 | -3.57110 | 105.47417 | 34853 ft | 458 kts | 129° |
| 2026-05-07 05:12 | -3.61210 | 105.52285 | 34852 ft | 457 kts | 129° |
| 2026-05-07 05:13 | -3.65283 | 105.57114 | 34850 ft | 457 kts | 129° |
| 2026-05-07 05:13 | -3.69403 | 105.61995 | 34850 ft | 462 kts | 129° |
| 2026-05-07 05:14 | -3.73543 | 105.66902 | 34850 ft | 458 kts | 128° |
| 2026-05-07 05:14 | -3.77653 | 105.71779 | 34850 ft | 460 kts | 129° |
| 2026-05-07 05:15 | -3.81781 | 105.76676 | 34850 ft | 458 kts | 129° |
| 2026-05-07 05:15 | -3.85914 | 105.81579 | 34853 ft | 461 kts | 129° |
| 2026-05-07 05:16 | -3.90033 | 105.86464 | 34854 ft | 459 kts | 129° |
| 2026-05-07 05:16 | -3.94131 | 105.91328 | 34853 ft | 459 kts | 129° |
| 2026-05-07 05:17 | -3.98250 | 105.96218 | 34850 ft | 458 kts | 129° |
| 2026-05-07 05:17 | -4.02361 | 106.01097 | 34849 ft | 459 kts | 130° |
| 2026-05-07 05:18 | -4.06987 | 106.05581 | 34851 ft | 466 kts | 140° |
| 2026-05-07 05:18 | -4.11918 | 106.09638 | 34853 ft | 465 kts | 140° |
| 2026-05-07 05:19 | -4.16912 | 106.13773 | 34853 ft | 465 kts | 140° |
| 2026-05-07 05:19 | -4.21900 | 106.17903 | 34855 ft | 465 kts | 140° |
| 2026-05-07 05:20 | -4.26861 | 106.22010 | 34848 ft | 465 kts | 140° |
| 2026-05-07 05:20 | -4.31859 | 106.26147 | 34848 ft | 465 kts | 140° |
| 2026-05-07 05:21 | -4.39346 | 106.32346 | 34848 ft | 466 kts | 140° |
| 2026-05-07 05:22 | -4.44348 | 106.36489 | 34832 ft | 466 kts | 140° |
| 2026-05-07 05:22 | -4.49351 | 106.40633 | 34836 ft | 467 kts | 140° |
| 2026-05-07 05:23 | -4.54357 | 106.44781 | 34842 ft | 467 kts | 140° |
| 2026-05-07 05:23 | -4.59370 | 106.48934 | 34840 ft | 468 kts | 140° |
| 2026-05-07 05:24 | -4.64389 | 106.53094 | 34850 ft | 468 kts | 140° |
| 2026-05-07 05:24 | -4.69410 | 106.57256 | 34854 ft | 469 kts | 140° |
| 2026-05-07 05:25 | -4.74440 | 106.61427 | 34857 ft | 469 kts | 140° |
| 2026-05-07 05:25 | -4.79421 | 106.65559 | 34850 ft | 466 kts | 140° |
| 2026-05-07 05:26 | -4.84426 | 106.69711 | 34853 ft | 467 kts | 140° |
| 2026-05-07 05:26 | -4.89435 | 106.73866 | 34851 ft | 467 kts | 140° |
| 2026-05-07 05:27 | -4.94443 | 106.78021 | 34844 ft | 467 kts | 140° |
| 2026-05-07 05:27 | -4.99445 | 106.82173 | 34842 ft | 467 kts | 140° |
| 2026-05-07 05:28 | -5.04447 | 106.86325 | 34851 ft | 466 kts | 140° |
| 2026-05-07 05:28 | -5.09414 | 106.90449 | 34841 ft | 466 kts | 140° |
| 2026-05-07 05:29 | -5.14408 | 106.94597 | 34848 ft | 466 kts | 140° |
| 2026-05-07 05:29 | -5.19401 | 106.98744 | 34854 ft | 465 kts | 140° |
| 2026-05-07 05:30 | -5.24390 | 107.02889 | 34853 ft | 465 kts | 140° |
| 2026-05-07 05:30 | -5.29377 | 107.07033 | 34845 ft | 465 kts | 140° |
| 2026-05-07 05:31 | -5.34331 | 107.11150 | 34834 ft | 465 kts | 140° |
| 2026-05-07 05:31 | -5.39318 | 107.15297 | 34841 ft | 465 kts | 140° |
| 2026-05-07 05:32 | -5.44312 | 107.19449 | 34842 ft | 465 kts | 140° |
| 2026-05-07 05:32 | -5.49310 | 107.23607 | 34839 ft | 466 kts | 140° |
| 2026-05-07 05:33 | -5.54299 | 107.27756 | 34852 ft | 466 kts | 140° |
| 2026-05-07 05:33 | -5.59287 | 107.31907 | 34855 ft | 466 kts | 140° |
| 2026-05-07 05:34 | -5.64251 | 107.36039 | 34844 ft | 466 kts | 140° |
| 2026-05-07 05:34 | -5.69242 | 107.40193 | 34846 ft | 466 kts | 140° |
| 2026-05-07 05:35 | -5.74240 | 107.44354 | 34835 ft | 466 kts | 139° |
| 2026-05-07 05:35 | -5.79178 | 107.48466 | 34827 ft | 467 kts | 139° |
| 2026-05-07 05:36 | -5.84182 | 107.52637 | 34859 ft | 467 kts | 139° |
| 2026-05-07 05:36 | -5.89153 | 107.56777 | 34856 ft | 467 kts | 139° |
| 2026-05-07 05:37 | -5.94154 | 107.60947 | 34859 ft | 466 kts | 140° |
| 2026-05-07 05:37 | -5.99148 | 107.65109 | 34857 ft | 466 kts | 140° |
| 2026-05-07 05:38 | -6.04137 | 107.69268 | 34845 ft | 466 kts | 139° |
| 2026-05-07 05:38 | -6.09122 | 107.73426 | 34843 ft | 465 kts | 139° |
| 2026-05-07 05:39 | -6.14101 | 107.77581 | 34829 ft | 465 kts | 139° |
| 2026-05-07 05:39 | -6.19041 | 107.81703 | 34849 ft | 464 kts | 139° |
| 2026-05-07 05:40 | -6.24001 | 107.85843 | 34846 ft | 464 kts | 139° |
| 2026-05-07 05:40 | -6.28968 | 107.89992 | 34833 ft | 463 kts | 140° |
| 2026-05-07 05:41 | -6.33928 | 107.94133 | 34837 ft | 463 kts | 139° |
| 2026-05-07 05:41 | -6.38880 | 107.98268 | 34838 ft | 462 kts | 139° |
| 2026-05-07 05:42 | -6.43826 | 108.02402 | 34830 ft | 462 kts | 139° |
| 2026-05-07 05:42 | -6.48775 | 108.06537 | 34831 ft | 462 kts | 139° |
| 2026-05-07 05:43 | -6.53714 | 108.10666 | 34847 ft | 462 kts | 139° |
| 2026-05-07 05:43 | -6.58660 | 108.14802 | 34846 ft | 462 kts | 139° |
| 2026-05-07 05:44 | -6.63594 | 108.18930 | 34846 ft | 461 kts | 139° |
| 2026-05-07 05:44 | -6.68482 | 108.23020 | 34860 ft | 461 kts | 139° |
| 2026-05-07 05:45 | -6.73390 | 108.27127 | 34857 ft | 461 kts | 139° |
| 2026-05-07 05:45 | -6.78334 | 108.31266 | 34854 ft | 462 kts | 139° |
| 2026-05-07 05:46 | -6.83278 | 108.35407 | 34865 ft | 462 kts | 139° |
| 2026-05-07 05:46 | -6.88222 | 108.39545 | 34698 ft | 462 kts | 139° |
| 2026-05-07 05:46 | -6.90697 | 108.41618 | 34468 ft | 461 kts | 139° |
| 2026-05-07 05:47 | -6.93166 | 108.43688 | 34239 ft | 462 kts | 139° |
| 2026-05-07 05:47 | -6.95642 | 108.45763 | 34025 ft | 464 kts | 139° |
| 2026-05-07 05:47 | -6.98126 | 108.47845 | 33797 ft | 465 kts | 139° |
| 2026-05-07 05:47 | -7.00608 | 108.49928 | 33540 ft | 465 kts | 139° |
| 2026-05-07 05:48 | -7.03092 | 108.52011 | 33284 ft | 465 kts | 139° |
| 2026-05-07 05:48 | -7.05577 | 108.54094 | 33033 ft | 465 kts | 139° |
| 2026-05-07 05:48 | -7.08032 | 108.56151 | 32789 ft | 464 kts | 139° |
| 2026-05-07 05:48 | -7.10547 | 108.58261 | 32532 ft | 466 kts | 140° |
| 2026-05-07 05:49 | -7.13038 | 108.60350 | 32289 ft | 466 kts | 140° |
| 2026-05-07 05:49 | -7.15491 | 108.62407 | 32051 ft | 463 kts | 139° |
| 2026-05-07 05:49 | -7.17991 | 108.64505 | 31808 ft | 463 kts | 139° |
| 2026-05-07 05:49 | -7.20439 | 108.66561 | 31514 ft | 465 kts | 140° |
| 2026-05-07 05:50 | -7.22934 | 108.68657 | 30977 ft | 466 kts | 140° |
| 2026-05-07 05:50 | -7.25430 | 108.70753 | 30216 ft | 468 kts | 140° |
| 2026-05-07 05:50 | -7.27918 | 108.72843 | 29644 ft | 463 kts | 140° |
| 2026-05-07 05:50 | -7.29532 | 108.74199 | 29256 ft | 460 kts | 140° |
| 2026-05-07 05:51 | -7.31979 | 108.76253 | 28685 ft | 454 kts | 140° |
| 2026-05-07 05:51 | -7.35201 | 108.78960 | 27923 ft | 447 kts | 140° |
| 2026-05-07 05:51 | -7.36781 | 108.80287 | 27549 ft | 444 kts | 140° |
| 2026-05-07 05:51 | -7.39142 | 108.82270 | 26986 ft | 439 kts | 140° |
| 2026-05-07 05:52 | -7.42238 | 108.84871 | 26217 ft | 435 kts | 140° |
| 2026-05-07 05:52 | -7.44549 | 108.86814 | 25679 ft | 431 kts | 140° |
| 2026-05-07 05:52 | -7.46102 | 108.88118 | 25324 ft | 429 kts | 140° |
| 2026-05-07 05:52 | -7.48387 | 108.90040 | 24755 ft | 426 kts | 140° |
| 2026-05-07 05:53 | -7.50625 | 108.91921 | 24197 ft | 424 kts | 140° |
| 2026-05-07 05:53 | -7.52886 | 108.93821 | 23650 ft | 422 kts | 140° |
| 2026-05-07 05:53 | -7.55139 | 108.95717 | 23022 ft | 420 kts | 140° |
| 2026-05-07 05:53 | -7.57365 | 108.97589 | 22536 ft | 414 kts | 140° |
| 2026-05-07 05:54 | -7.59563 | 108.99439 | 22014 ft | 409 kts | 140° |
| 2026-05-07 05:54 | -7.61602 | 109.01164 | 21491 ft | 405 kts | 137° |
| 2026-05-07 05:54 | -7.63519 | 109.03420 | 20934 ft | 400 kts | 121° |
| 2026-05-07 05:54 | -7.64640 | 109.05953 | 20557 ft | 392 kts | 105° |
| 2026-05-07 05:55 | -7.65101 | 109.08667 | 20454 ft | 398 kts | 97° |
| 2026-05-07 05:55 | -7.65443 | 109.11448 | 20342 ft | 402 kts | 97° |
| 2026-05-07 05:55 | -7.65793 | 109.14244 | 20165 ft | 401 kts | 97° |
| 2026-05-07 05:55 | -7.66149 | 109.17060 | 19980 ft | 398 kts | 97° |
| 2026-05-07 05:56 | -7.66491 | 109.19782 | 19804 ft | 396 kts | 97° |
| 2026-05-07 05:56 | -7.66837 | 109.22539 | 19626 ft | 397 kts | 97° |
| 2026-05-07 05:56 | -7.67183 | 109.25299 | 19443 ft | 395 kts | 97° |
| 2026-05-07 05:56 | -7.67525 | 109.28033 | 19264 ft | 393 kts | 97° |
| 2026-05-07 05:57 | -7.67866 | 109.30768 | 19088 ft | 393 kts | 97° |
| 2026-05-07 05:57 | -7.68207 | 109.33499 | 18908 ft | 392 kts | 97° |
| 2026-05-07 05:57 | -7.68547 | 109.36224 | 18732 ft | 390 kts | 97° |
| 2026-05-07 05:57 | -7.68884 | 109.38928 | 18555 ft | 389 kts | 97° |
| 2026-05-07 05:58 | -7.69222 | 109.41639 | 18374 ft | 389 kts | 97° |
| 2026-05-07 05:58 | -7.69558 | 109.44336 | 18200 ft | 386 kts | 97° |
| 2026-05-07 05:58 | -7.69892 | 109.47019 | 18011 ft | 386 kts | 97° |
| 2026-05-07 05:58 | -7.70226 | 109.49705 | 17834 ft | 386 kts | 97° |
| 2026-05-07 05:59 | -7.70559 | 109.52386 | 17658 ft | 384 kts | 97° |
| 2026-05-07 05:59 | -7.70890 | 109.55047 | 17491 ft | 382 kts | 97° |
| 2026-05-07 05:59 | -7.71220 | 109.57707 | 17315 ft | 382 kts | 97° |
| 2026-05-07 05:59 | -7.71549 | 109.60356 | 17143 ft | 380 kts | 97° |
| 2026-05-07 06:00 | -7.71872 | 109.62962 | 16977 ft | 378 kts | 97° |
| 2026-05-07 06:00 | -7.72198 | 109.65587 | 16800 ft | 378 kts | 97° |
| 2026-05-07 06:00 | -7.72523 | 109.68213 | 16631 ft | 377 kts | 97° |
| 2026-05-07 06:00 | -7.72846 | 109.70822 | 16461 ft | 373 kts | 97° |
| 2026-05-07 06:01 | -7.73163 | 109.73369 | 16299 ft | 373 kts | 97° |
| 2026-05-07 06:01 | -7.73484 | 109.75967 | 16117 ft | 373 kts | 97° |
| 2026-05-07 06:01 | -7.73804 | 109.78552 | 15957 ft | 370 kts | 97° |
| 2026-05-07 06:01 | -7.74122 | 109.81125 | 15787 ft | 369 kts | 97° |
| 2026-05-07 06:02 | -7.74439 | 109.83686 | 15620 ft | 370 kts | 98° |
| 2026-05-07 06:02 | -7.74756 | 109.86264 | 15454 ft | 367 kts | 98° |
| 2026-05-07 06:02 | -7.75069 | 109.88791 | 15290 ft | 364 kts | 98° |
| 2026-05-07 06:02 | -7.75732 | 109.91257 | 15124 ft | 365 kts | 115° |
| 2026-05-07 06:03 | -7.77153 | 109.93370 | 14956 ft | 364 kts | 134° |
| 2026-05-07 06:03 | -7.79161 | 109.94876 | 14782 ft | 360 kts | 153° |
| 2026-05-07 06:03 | -7.81513 | 109.95632 | 14583 ft | 363 kts | 172° |
| 2026-05-07 06:03 | -7.84057 | 109.95574 | 14380 ft | 366 kts | 190° |
| 2026-05-07 06:04 | -7.86518 | 109.94941 | 14178 ft | 363 kts | 193° |
| 2026-05-07 06:04 | -7.88953 | 109.94282 | 13977 ft | 361 kts | 193° |
| 2026-05-07 06:04 | -7.91380 | 109.93626 | 13780 ft | 362 kts | 193° |
| 2026-05-07 06:04 | -7.93812 | 109.92972 | 13561 ft | 360 kts | 193° |
| 2026-05-07 06:05 | -7.96227 | 109.92325 | 13365 ft | 357 kts | 193° |
| 2026-05-07 06:05 | -7.98641 | 109.91685 | 13169 ft | 359 kts | 193° |
| 2026-05-07 06:05 | -8.01061 | 109.91042 | 12967 ft | 359 kts | 193° |
| 2026-05-07 06:05 | -8.03462 | 109.90403 | 12860 ft | 356 kts | 192° |
| 2026-05-07 06:06 | -8.05860 | 109.89770 | 12788 ft | 357 kts | 193° |
| 2026-05-07 06:06 | -8.08269 | 109.89139 | 12559 ft | 358 kts | 193° |
| 2026-05-07 06:06 | -8.10687 | 109.88502 | 12028 ft | 361 kts | 192° |
| 2026-05-07 06:06 | -8.13128 | 109.87993 | 11127 ft | 364 kts | 182° |
| 2026-05-07 06:07 | -8.15638 | 109.88232 | 10101 ft | 362 kts | 161° |
| 2026-05-07 06:07 | -8.17854 | 109.89338 | 9494 ft | 347 kts | 140° |
| 2026-05-07 06:07 | -8.19388 | 109.91093 | 9250 ft | 323 kts | 117° |
| 2026-05-07 06:07 | -8.20066 | 109.93146 | 9089 ft | 298 kts | 96° |
| 2026-05-07 06:08 | -8.20179 | 109.95168 | 8922 ft | 278 kts | 85° |
| 2026-05-07 06:08 | -8.19733 | 109.96994 | 8690 ft | 263 kts | 65° |
| 2026-05-07 06:08 | -8.18760 | 109.98490 | 8322 ft | 255 kts | 46° |
| 2026-05-07 06:08 | -8.17360 | 109.99523 | 8240 ft | 252 kts | 27° |
| 2026-05-07 06:09 | -8.15637 | 110.00044 | 8152 ft | 264 kts | 14° |
| 2026-05-07 06:09 | -8.13845 | 110.00446 | 8058 ft | 261 kts | 14° |
| 2026-05-07 06:09 | -8.12061 | 110.00533 | 7982 ft | 257 kts | 351° |
| 2026-05-07 06:09 | -8.10458 | 109.99821 | 7874 ft | 249 kts | 332° |
| 2026-05-07 06:10 | -8.08984 | 109.98926 | 7645 ft | 246 kts | 330° |
| 2026-05-07 06:10 | -8.07533 | 109.98036 | 7320 ft | 243 kts | 332° |
| 2026-05-07 06:10 | -8.06088 | 109.97153 | 6868 ft | 242 kts | 331° |
| 2026-05-07 06:10 | -8.04657 | 109.96283 | 6503 ft | 238 kts | 332° |
| 2026-05-07 06:11 | -8.03261 | 109.95446 | 6222 ft | 227 kts | 332° |
| 2026-05-07 06:11 | -8.01921 | 109.94652 | 5868 ft | 221 kts | 332° |
| 2026-05-07 06:11 | -8.00589 | 109.93868 | 5475 ft | 219 kts | 332° |
| 2026-05-07 06:11 | -7.99305 | 109.93109 | 5185 ft | 211 kts | 332° |
| 2026-05-07 06:12 | -7.98067 | 109.92376 | 5028 ft | 195 kts | 332° |
| 2026-05-07 06:12 | -7.96945 | 109.91704 | 4905 ft | 179 kts | 332° |
| 2026-05-07 06:12 | -7.95882 | 109.91075 | 4583 ft | 180 kts | 332° |
| 2026-05-07 06:12 | -7.94781 | 109.90428 | 4032 ft | 191 kts | 332° |
| 2026-05-07 06:13 | -7.93577 | 109.89754 | 3384 ft | 204 kts | 338° |
| 2026-05-07 06:13 | -7.92209 | 109.89342 | 2886 ft | 204 kts | 349° |
| 2026-05-07 06:13 | -7.90879 | 109.89036 | 2725 ft | 188 kts | 349° |
| 2026-05-07 06:13 | -7.89647 | 109.88822 | 2590 ft | 172 kts | 7° |
| 2026-05-07 06:14 | -7.88626 | 109.89293 | 2303 ft | 164 kts | 51° |
| 2026-05-07 06:14 | -7.88202 | 109.90310 | 2048 ft | 161 kts | 82° |
| 2026-05-07 06:14 | -7.88018 | 109.91426 | 1996 ft | 157 kts | 85° |
| 2026-05-07 06:14 | -7.87861 | 109.92494 | 1998 ft | 150 kts | 84° |
| 2026-05-07 06:15 | -7.87705 | 109.93535 | 2002 ft | 151 kts | 84° |
| 2026-05-07 06:15 | -7.87568 | 109.94541 | 2009 ft | 141 kts | 86° |
| 2026-05-07 06:15 | -7.87443 | 109.95520 | 1818 ft | 139 kts | 87° |
| 2026-05-07 06:15 | -7.87393 | 109.96465 | 1491 ft | 134 kts | 100° |
| 2026-05-07 06:16 | -7.87533 | 109.97373 | 1395 ft | 134 kts | 108° |
| 2026-05-07 06:16 | -7.87796 | 109.98252 | 1354 ft | 130 kts | 110° |
| 2026-05-07 06:16 | -7.88116 | 109.99107 | 1207 ft | 133 kts | 116° |
| 2026-05-07 06:16 | -7.88449 | 109.99984 | 928 ft | 133 kts | 115° |
| 2026-05-07 06:17 | -7.88769 | 110.00844 | 818 ft | 131 kts | 115° |
| 2026-05-07 06:17 | -7.89077 | 110.01707 | 666 ft | 131 kts | 115° |
| 2026-05-07 06:17 | -7.89396 | 110.02577 | 528 ft | 132 kts | 112° |
| 2026-05-07 06:17 | -7.89708 | 110.03455 | 325 ft | 132 kts | 115° |
| 2026-05-07 06:18 | -7.90017 | 110.04303 | 87 ft | 126 kts | 114° |
| 2026-05-07 06:18 | -7.90288 | 110.05045 | 36 ft | 87 kts | 109° |
| 2026-05-07 06:18 | -7.90433 | 110.05442 | 40 ft | 45 kts | 110° |
| 2026-05-07 06:18 | -7.90536 | 110.05723 | 45 ft | 41 kts | 107° |
| 2026-05-07 06:19 | -7.90632 | 110.05991 | 43 ft | 40 kts | 110° |
| 2026-05-07 06:19 | -7.90663 | 110.06228 | 43 ft | 28 kts | 84° |
| 2026-05-07 06:19 | -7.90642 | 110.06326 | 42 ft | 14 kts | 75° |
| 2026-05-07 06:19 | -7.90629 | 110.06422 | 42 ft | 12 kts | 95° |
| 2026-05-07 06:20 | -7.90584 | 110.06476 | 40 ft | 11 kts | 21° |
| 2026-05-07 06:20 | -7.90495 | 110.06509 | 39 ft | 15 kts | 14° |
| 2026-05-07 06:20 | -7.90441 | 110.06469 | 39 ft | 8 kts | 289° |
| 2026-05-07 06:20 | -7.90418 | 110.06403 | 39 ft | 12 kts | 289° |
| 2026-05-07 06:21 | -7.90384 | 110.06313 | 39 ft | 15 kts | 291° |
| 2026-05-07 06:21 | -7.90342 | 110.06201 | 39 ft | 19 kts | 290° |
| 2026-05-07 06:21 | -7.90292 | 110.06067 | 38 ft | 22 kts | 290° |
| 2026-05-07 06:21 | -7.90244 | 110.05937 | 39 ft | 17 kts | 291° |
| 2026-05-07 06:22 | -7.90205 | 110.05834 | 39 ft | 15 kts | 291° |
| 2026-05-07 06:22 | -7.90179 | 110.05770 | 37 ft | 5 kts | 307° |
| 2026-05-07 06:22 | -7.90142 | 110.05770 | 39 ft | 5 kts | 18° |
| 2026-05-07 06:23 | -7.90132 | 110.05774 | 39 ft | 6 kts | 19° |
| 2026-05-07 06:23 | -7.90120 | 110.05778 | 39 ft | 0 kts | 19° |
| 2026-05-07 06:23 | -7.90109 | 110.05782 | 39 ft | 4 kts | 20° |
| 2026-05-07 06:24 | -7.90089 | 110.05790 | 39 ft | 1 kts | 21° |
| 2026-05-07 06:24 | -7.90083 | 110.05792 | 39 ft | 0 kts | 20° |